createdAt,value
2022-11-23T00:00:04.444Z,22.12
2022-11-23T00:00:14.462Z,22.12
2022-11-23T00:00:24.464Z,22.14
2022-11-23T00:00:34.471Z,22.13
2022-11-23T00:00:44.464Z,22.13
2022-11-23T00:00:54.465Z,22.15
2022-11-23T00:01:04.466Z,22.14
2022-11-23T00:01:14.468Z,22.13
2022-11-23T00:01:24.469Z,22.15
2022-11-23T00:01:34.471Z,22.06
2022-11-23T00:01:44.572Z,22.16
2022-11-23T00:01:54.489Z,22.16
2022-11-23T00:02:04.558Z,22.15
2022-11-23T00:02:14.485Z,22.15
2022-11-23T00:02:24.520Z,22.15
2022-11-23T00:02:34.501Z,22.17
2022-11-23T00:02:44.472Z,22.16
2022-11-23T00:02:54.474Z,22.16
2022-11-23T00:03:04.471Z,22.16
2022-11-23T00:03:14.473Z,22.14
2022-11-23T00:03:24.474Z,22.16
2022-11-23T00:03:34.477Z,22.17
2022-11-23T00:03:44.475Z,22.16
2022-11-23T00:03:54.476Z,22.18
2022-11-23T00:04:04.474Z,22.16
2022-11-23T00:04:14.476Z,22.18
2022-11-23T00:04:24.477Z,22.16
2022-11-23T00:04:34.477Z,22.17
2022-11-23T00:04:44.479Z,22.16
2022-11-23T00:04:54.483Z,22.16
2022-11-23T00:05:04.481Z,22.17
2022-11-23T00:05:14.482Z,22.17
2022-11-23T00:05:24.492Z,22.17
2022-11-23T00:05:34.484Z,22.14
2022-11-23T00:05:44.486Z,22.16
2022-11-23T00:05:54.488Z,22.14
2022-11-23T00:06:04.486Z,22.15
2022-11-23T00:06:14.492Z,22.14
2022-11-23T00:06:24.486Z,22.16
2022-11-23T00:06:34.503Z,22.16
2022-11-23T00:06:44.489Z,22.15
2022-11-23T00:06:54.495Z,22.15
2022-11-23T00:07:04.579Z,22.15
2022-11-23T00:07:14.554Z,22.16
2022-11-23T00:07:24.522Z,22.14
2022-11-23T00:07:34.567Z,22.15
2022-11-23T00:07:44.519Z,22.17
2022-11-23T00:07:54.504Z,22.16
2022-11-23T00:08:04.495Z,22.18
2022-11-23T00:08:14.498Z,22.16
2022-11-23T00:08:24.495Z,22.15
2022-11-23T00:08:34.498Z,22.17
2022-11-23T00:08:44.497Z,22.17
2022-11-23T00:08:54.499Z,22.18
2022-11-23T00:09:04.499Z,22.18
2022-11-23T00:09:14.500Z,22.17
2022-11-23T00:09:24.500Z,22.17
2022-11-23T00:09:34.548Z,22.16
2022-11-23T00:09:44.502Z,22.15
2022-11-23T00:09:54.502Z,22.16
2022-11-23T00:10:04.506Z,22.19
2022-11-23T00:10:14.505Z,22.17
2022-11-23T00:10:24.491Z,22.17
2022-11-23T00:10:34.509Z,22.17
2022-11-23T00:10:44.509Z,22.15
2022-11-23T00:10:54.512Z,22.16
2022-11-23T00:11:04.511Z,22.18
2022-11-23T00:11:14.518Z,22.17
2022-11-23T00:11:24.513Z,22.17
2022-11-23T00:11:34.514Z,22.17
2022-11-23T00:11:44.514Z,22.18
2022-11-23T00:11:54.515Z,22.18
2022-11-23T00:12:04.514Z,22.18
2022-11-23T00:12:14.518Z,22.17
2022-11-23T00:12:24.519Z,22.16
2022-11-23T00:12:34.518Z,22.17
2022-11-23T00:12:44.519Z,22.17
2022-11-23T00:12:54.519Z,22.18
2022-11-23T00:13:04.519Z,22.18
2022-11-23T00:13:14.523Z,22.16
2022-11-23T00:13:24.519Z,22.19
2022-11-23T00:13:34.522Z,22.19
2022-11-23T00:13:44.621Z,22.18
2022-11-23T00:13:54.525Z,22.19
2022-11-23T00:14:04.523Z,22.17
2022-11-23T00:14:14.527Z,22.17
2022-11-23T00:14:24.527Z,22.20
2022-11-23T00:14:34.526Z,22.16
2022-11-23T00:14:44.527Z,22.17
2022-11-23T00:14:54.526Z,22.18
2022-11-23T00:15:04.528Z,22.18
2022-11-23T00:15:14.531Z,22.17
2022-11-23T00:15:24.531Z,22.16
2022-11-23T00:15:34.534Z,22.17
2022-11-23T00:15:44.532Z,22.18
2022-11-23T00:15:54.530Z,22.17
2022-11-23T00:16:04.532Z,22.18
2022-11-23T00:16:14.536Z,22.17
2022-11-23T00:16:24.535Z,22.17
2022-11-23T00:16:34.534Z,22.17
2022-11-23T00:16:44.535Z,22.15
2022-11-23T00:16:54.538Z,22.17
2022-11-23T00:17:04.537Z,22.16
2022-11-23T00:17:14.547Z,22.08
2022-11-23T00:17:24.545Z,22.14
2022-11-23T00:17:34.541Z,22.16
2022-11-23T00:17:44.542Z,22.15
2022-11-23T00:17:54.544Z,22.13
2022-11-23T00:18:04.551Z,22.14
2022-11-23T00:18:14.548Z,22.12
2022-11-23T00:18:24.544Z,22.13
2022-11-23T00:18:34.546Z,22.12
2022-11-23T00:18:44.549Z,22.10
2022-11-23T00:18:54.530Z,22.12
2022-11-23T00:19:04.552Z,22.12
2022-11-23T00:19:14.549Z,22.12
2022-11-23T00:19:24.548Z,22.12
2022-11-23T00:19:34.694Z,22.14
2022-11-23T00:19:44.553Z,22.13
2022-11-23T00:19:54.550Z,22.13
2022-11-23T00:20:04.551Z,22.13
2022-11-23T00:20:14.556Z,22.12
2022-11-23T00:20:24.554Z,22.14
2022-11-23T00:20:34.553Z,22.14
2022-11-23T00:20:44.557Z,22.14
2022-11-23T00:20:54.554Z,22.16
2022-11-23T00:21:04.555Z,22.14
2022-11-23T00:21:14.558Z,22.16
2022-11-23T00:21:24.558Z,22.15
2022-11-23T00:21:34.558Z,22.14
2022-11-23T00:21:44.558Z,22.15
2022-11-23T00:21:54.559Z,22.15
2022-11-23T00:22:04.560Z,22.16
2022-11-23T00:22:14.563Z,22.17
2022-11-23T00:22:24.562Z,22.18
2022-11-23T00:22:34.593Z,22.17
2022-11-23T00:22:44.564Z,22.17
2022-11-23T00:22:54.566Z,22.17
2022-11-23T00:23:04.575Z,22.16
2022-11-23T00:23:14.569Z,22.17
2022-11-23T00:23:24.567Z,22.16
2022-11-23T00:23:34.569Z,22.17
2022-11-23T00:23:44.568Z,22.17
2022-11-23T00:23:54.569Z,22.16
2022-11-23T00:24:04.571Z,22.17
2022-11-23T00:24:14.574Z,22.17
2022-11-23T00:24:24.574Z,22.15
2022-11-23T00:24:34.631Z,22.15
2022-11-23T00:24:44.623Z,22.16
2022-11-23T00:24:54.606Z,22.16
2022-11-23T00:25:04.655Z,22.17
2022-11-23T00:25:14.598Z,22.16
2022-11-23T00:25:24.581Z,22.16
2022-11-23T00:25:34.580Z,22.17
2022-11-23T00:25:44.582Z,22.17
2022-11-23T00:25:54.581Z,22.17
2022-11-23T00:26:04.582Z,22.18
2022-11-23T00:26:14.590Z,22.16
2022-11-23T00:26:24.568Z,22.17
2022-11-23T00:26:34.584Z,22.18
2022-11-23T00:26:44.585Z,22.17
2022-11-23T00:26:54.584Z,22.17
2022-11-23T00:27:04.584Z,22.18
2022-11-23T00:27:14.593Z,22.17
2022-11-23T00:27:24.587Z,22.17
2022-11-23T00:27:34.589Z,22.17
2022-11-23T00:27:44.586Z,22.15
2022-11-23T00:27:54.588Z,22.16
2022-11-23T00:28:04.590Z,22.14
2022-11-23T00:28:14.591Z,22.13
2022-11-23T00:28:24.593Z,22.07
2022-11-23T00:28:34.594Z,22.13
2022-11-23T00:28:44.593Z,22.11
2022-11-23T00:28:54.594Z,22.12
2022-11-23T00:29:04.596Z,22.10
2022-11-23T00:29:14.597Z,22.10
2022-11-23T00:29:24.596Z,22.11
2022-11-23T00:29:34.604Z,22.11
2022-11-23T00:29:44.600Z,22.11
2022-11-23T00:29:54.603Z,22.10
2022-11-23T00:30:04.599Z,22.11
2022-11-23T00:30:14.602Z,22.11
2022-11-23T00:30:24.601Z,22.09
2022-11-23T00:30:34.619Z,22.10
2022-11-23T00:30:44.603Z,22.10
2022-11-23T00:30:54.602Z,22.10
2022-11-23T00:31:04.603Z,22.10
2022-11-23T00:31:14.609Z,22.10
2022-11-23T00:31:24.588Z,22.10
2022-11-23T00:31:34.607Z,22.11
2022-11-23T00:31:44.607Z,22.10
2022-11-23T00:31:54.595Z,22.11
2022-11-23T00:32:04.609Z,22.08
2022-11-23T00:32:14.612Z,22.08
2022-11-23T00:32:24.610Z,22.09
2022-11-23T00:32:34.612Z,22.09
2022-11-23T00:32:44.630Z,22.07
2022-11-23T00:32:54.614Z,22.07
2022-11-23T00:33:04.617Z,22.09
2022-11-23T00:33:14.619Z,22.07
2022-11-23T00:33:24.619Z,22.09
2022-11-23T00:33:34.640Z,22.07
2022-11-23T00:33:44.609Z,22.07
2022-11-23T00:33:54.620Z,22.08
2022-11-23T00:34:04.620Z,22.07
2022-11-23T00:34:14.623Z,22.05
2022-11-23T00:34:24.623Z,22.06
2022-11-23T00:34:34.622Z,22.07
2022-11-23T00:34:44.625Z,22.08
2022-11-23T00:34:54.625Z,22.07
2022-11-23T00:35:04.628Z,22.06
2022-11-23T00:35:14.627Z,22.07
2022-11-23T00:35:24.626Z,22.07
2022-11-23T00:35:34.627Z,22.06
2022-11-23T00:35:44.630Z,22.05
2022-11-23T00:35:54.631Z,22.05
2022-11-23T00:36:04.627Z,22.04
2022-11-23T00:36:14.680Z,22.04
2022-11-23T00:36:24.637Z,22.05
2022-11-23T00:36:34.630Z,22.05
2022-11-23T00:36:44.631Z,22.07
2022-11-23T00:36:54.634Z,22.07
2022-11-23T00:37:04.634Z,22.06
2022-11-23T00:37:14.635Z,22.07
2022-11-23T00:37:24.636Z,22.07
2022-11-23T00:37:34.638Z,22.08
2022-11-23T00:37:44.638Z,22.09
2022-11-23T00:37:54.639Z,22.09
2022-11-23T00:38:04.639Z,22.09
2022-11-23T00:38:14.640Z,22.09
2022-11-23T00:38:24.642Z,22.09
2022-11-23T00:38:34.644Z,22.10
2022-11-23T00:38:44.658Z,22.08
2022-11-23T00:38:54.649Z,22.07
2022-11-23T00:39:04.645Z,22.07
2022-11-23T00:39:14.647Z,22.08
2022-11-23T00:39:24.648Z,22.09
2022-11-23T00:39:34.647Z,22.07
2022-11-23T00:39:44.648Z,22.08
2022-11-23T00:39:54.651Z,22.10
2022-11-23T00:40:04.650Z,22.10
2022-11-23T00:40:14.651Z,22.10
2022-11-23T00:40:24.651Z,22.09
2022-11-23T00:40:34.653Z,22.11
2022-11-23T00:40:44.657Z,22.10
2022-11-23T00:40:54.653Z,22.11
2022-11-23T00:41:04.656Z,22.09
2022-11-23T00:41:14.657Z,22.08
2022-11-23T00:41:24.643Z,22.09
2022-11-23T00:41:34.660Z,22.09
2022-11-23T00:41:44.660Z,22.09
2022-11-23T00:41:54.661Z,22.10
2022-11-23T00:42:04.663Z,22.09
2022-11-23T00:42:14.663Z,22.09
2022-11-23T00:42:24.666Z,22.10
2022-11-23T00:42:37.966Z,22.09
2022-11-23T00:42:44.668Z,22.07
2022-11-23T00:42:54.667Z,22.06
2022-11-23T00:43:04.667Z,22.06
2022-11-23T00:43:14.670Z,22.07
2022-11-23T00:43:24.672Z,22.07
2022-11-23T00:43:34.673Z,22.09
2022-11-23T00:43:44.672Z,22.02
2022-11-23T00:43:54.679Z,22.10
2022-11-23T00:44:04.674Z,22.02
2022-11-23T00:44:14.676Z,22.10
2022-11-23T00:44:24.674Z,22.11
2022-11-23T00:44:34.676Z,22.11
2022-11-23T00:44:44.677Z,22.11
2022-11-23T00:44:54.680Z,22.13
2022-11-23T00:45:04.687Z,22.13
2022-11-23T00:45:14.680Z,22.11
2022-11-23T00:45:24.683Z,22.11
2022-11-23T00:45:34.684Z,22.11
2022-11-23T00:45:44.683Z,22.12
2022-11-23T00:45:54.682Z,22.08
2022-11-23T00:46:04.683Z,22.10
2022-11-23T00:46:14.681Z,22.10
2022-11-23T00:46:24.702Z,22.11
2022-11-23T00:46:34.689Z,22.11
2022-11-23T00:46:44.686Z,22.09
2022-11-23T00:46:54.692Z,22.09
2022-11-23T00:47:04.692Z,22.07
2022-11-23T00:47:14.694Z,22.09
2022-11-23T00:47:24.695Z,22.08
2022-11-23T00:47:34.695Z,22.08
2022-11-23T00:47:44.696Z,22.08
2022-11-23T00:47:54.697Z,22.07
2022-11-23T00:48:04.694Z,22.07
2022-11-23T00:48:14.700Z,22.07
2022-11-23T00:48:24.697Z,22.06
2022-11-23T00:48:34.695Z,22.07
2022-11-23T00:48:44.697Z,22.06
2022-11-23T00:48:54.708Z,22.06
2022-11-23T00:49:04.698Z,22.07
2022-11-23T00:49:14.700Z,22.08
2022-11-23T00:49:24.701Z,22.05
2022-11-23T00:49:34.702Z,22.07
2022-11-23T00:49:44.703Z,22.07
2022-11-23T00:49:54.705Z,22.07
2022-11-23T00:50:04.705Z,22.06
2022-11-23T00:50:14.706Z,22.08
2022-11-23T00:50:24.710Z,22.07
2022-11-23T00:50:34.712Z,22.08
2022-11-23T00:50:44.707Z,22.09
2022-11-23T00:50:54.710Z,22.09
2022-11-23T00:51:04.709Z,22.10
2022-11-23T00:51:14.714Z,22.09
2022-11-23T00:51:24.716Z,22.09
2022-11-23T00:51:34.713Z,22.10
2022-11-23T00:51:44.717Z,22.11
2022-11-23T00:51:54.715Z,22.10
2022-11-23T00:52:04.715Z,22.12
2022-11-23T00:52:14.715Z,22.11
2022-11-23T00:52:24.717Z,22.11
2022-11-23T00:52:34.718Z,22.11
2022-11-23T00:52:44.718Z,22.10
2022-11-23T00:52:54.721Z,22.12
2022-11-23T00:53:04.719Z,22.12
2022-11-23T00:53:14.721Z,22.10
2022-11-23T00:53:24.723Z,22.11
2022-11-23T00:53:34.727Z,22.09
2022-11-23T00:53:44.725Z,22.11
2022-11-23T00:53:54.726Z,22.09
2022-11-23T00:54:04.725Z,22.10
2022-11-23T00:54:14.725Z,22.11
2022-11-23T00:54:24.727Z,22.10
2022-11-23T00:54:34.726Z,22.11
2022-11-23T00:54:44.727Z,22.10
2022-11-23T00:54:54.729Z,22.11
2022-11-23T00:55:04.730Z,22.13
2022-11-23T00:55:14.730Z,22.14
2022-11-23T00:55:24.743Z,22.13
2022-11-23T00:55:34.733Z,22.10
2022-11-23T00:55:44.735Z,22.10
2022-11-23T00:55:54.734Z,22.13
2022-11-23T00:56:04.738Z,22.13
2022-11-23T00:56:14.737Z,22.14
2022-11-23T00:56:24.739Z,22.13
2022-11-23T00:56:34.744Z,22.14
2022-11-23T00:56:44.738Z,22.15
2022-11-23T00:56:54.739Z,22.13
2022-11-23T00:57:04.737Z,22.15
2022-11-23T00:57:14.740Z,22.13
2022-11-23T00:57:24.740Z,22.14
2022-11-23T00:57:34.745Z,22.14
2022-11-23T00:57:44.741Z,22.13
2022-11-23T00:57:54.744Z,22.13
2022-11-23T00:58:04.744Z,22.13
2022-11-23T00:58:14.745Z,22.12
2022-11-23T00:58:24.748Z,22.13
2022-11-23T00:58:34.749Z,22.10
2022-11-23T00:58:44.744Z,22.10
2022-11-23T00:58:54.746Z,22.09
2022-11-23T00:59:04.747Z,22.10
2022-11-23T00:59:14.749Z,22.10
2022-11-23T00:59:24.752Z,22.09
2022-11-23T00:59:34.885Z,22.10
2022-11-23T00:59:44.751Z,22.07
2022-11-23T00:59:54.751Z,22.08
2022-11-23T01:00:04.752Z,22.10
2022-11-23T01:00:14.752Z,22.06
2022-11-23T01:00:24.753Z,22.06
2022-11-23T01:00:34.758Z,22.07
2022-11-23T01:00:44.755Z,22.05
2022-11-23T01:00:54.757Z,22.06
2022-11-23T01:01:04.858Z,22.05
2022-11-23T01:01:14.835Z,22.07
2022-11-23T01:01:24.831Z,22.06
2022-11-23T01:01:34.863Z,22.05
2022-11-23T01:01:45.012Z,22.04
2022-11-23T01:01:54.805Z,22.03
2022-11-23T01:02:04.808Z,22.03
2022-11-23T01:02:14.762Z,22.04
2022-11-23T01:02:24.764Z,22.03
2022-11-23T01:02:34.767Z,22.04
2022-11-23T01:02:44.786Z,22.03
2022-11-23T01:02:54.771Z,22.03
2022-11-23T01:03:04.767Z,22.02
2022-11-23T01:03:14.769Z,22.04
2022-11-23T01:03:24.772Z,22.02
2022-11-23T01:03:34.771Z,22.03
2022-11-23T01:03:44.772Z,22.03
2022-11-23T01:03:54.775Z,22.04
2022-11-23T01:04:04.775Z,22.05
2022-11-23T01:04:14.776Z,22.06
2022-11-23T01:04:24.778Z,22.05
2022-11-23T01:04:34.775Z,22.06
2022-11-23T01:04:44.775Z,22.05
2022-11-23T01:04:54.779Z,22.04
2022-11-23T01:05:04.776Z,22.07
2022-11-23T01:05:14.780Z,22.06
2022-11-23T01:05:24.778Z,22.07
2022-11-23T01:05:34.779Z,22.05
2022-11-23T01:05:44.780Z,21.97
2022-11-23T01:05:54.783Z,22.07
2022-11-23T01:06:04.783Z,22.08
2022-11-23T01:06:14.787Z,22.09
2022-11-23T01:06:24.790Z,22.08
2022-11-23T01:06:34.788Z,22.10
2022-11-23T01:06:44.788Z,22.11
2022-11-23T01:06:54.788Z,22.09
2022-11-23T01:07:04.826Z,22.10
2022-11-23T01:07:14.855Z,22.10
2022-11-23T01:07:24.830Z,22.07
2022-11-23T01:07:34.804Z,22.08
2022-11-23T01:07:44.819Z,22.08
2022-11-23T01:07:54.799Z,22.08
2022-11-23T01:08:04.802Z,22.08
2022-11-23T01:08:14.808Z,22.09
2022-11-23T01:08:24.797Z,22.09
2022-11-23T01:08:34.797Z,22.08
2022-11-23T01:08:44.801Z,22.06
2022-11-23T01:08:54.805Z,22.06
2022-11-23T01:09:04.799Z,22.07
2022-11-23T01:09:14.803Z,22.08
2022-11-23T01:09:24.804Z,22.06
2022-11-23T01:09:34.801Z,22.07
2022-11-23T01:09:44.802Z,22.07
2022-11-23T01:09:54.806Z,22.06
2022-11-23T01:10:04.804Z,22.06
2022-11-23T01:10:14.807Z,22.05
2022-11-23T01:10:24.810Z,22.06
2022-11-23T01:10:34.807Z,22.05
2022-11-23T01:10:44.813Z,22.05
2022-11-23T01:10:54.814Z,22.05
2022-11-23T01:11:04.811Z,22.05
2022-11-23T01:11:14.815Z,22.05
2022-11-23T01:11:24.820Z,22.05
2022-11-23T01:11:34.839Z,22.05
2022-11-23T01:11:44.814Z,22.07
2022-11-23T01:11:54.834Z,22.06
2022-11-23T01:12:04.815Z,22.07
2022-11-23T01:12:14.814Z,22.07
2022-11-23T01:12:24.816Z,22.05
2022-11-23T01:12:34.822Z,22.06
2022-11-23T01:12:44.817Z,22.06
2022-11-23T01:12:54.819Z,22.06
2022-11-23T01:13:04.819Z,22.06
2022-11-23T01:13:14.823Z,22.04
2022-11-23T01:13:24.819Z,22.06
2022-11-23T01:13:34.826Z,22.04
2022-11-23T01:13:44.820Z,22.04
2022-11-23T01:13:54.822Z,21.98
2022-11-23T01:14:04.826Z,22.05
2022-11-23T01:14:14.827Z,21.97
2022-11-23T01:14:24.826Z,22.04
2022-11-23T01:14:34.826Z,22.04
2022-11-23T01:14:44.828Z,22.04
2022-11-23T01:14:54.829Z,22.06
2022-11-23T01:15:04.831Z,22.03
2022-11-23T01:15:14.831Z,22.05
2022-11-23T01:15:24.835Z,22.04
2022-11-23T01:15:34.833Z,22.04
2022-11-23T01:15:44.834Z,22.05
2022-11-23T01:15:54.836Z,22.05
2022-11-23T01:16:04.840Z,22.05
2022-11-23T01:16:18.225Z,22.06
2022-11-23T01:16:25.842Z,22.05
2022-11-23T01:16:34.838Z,22.06
2022-11-23T01:16:44.841Z,22.05
2022-11-23T01:16:54.842Z,22.06
2022-11-23T01:17:04.850Z,22.04
2022-11-23T01:17:14.841Z,22.07
2022-11-23T01:17:24.842Z,22.08
2022-11-23T01:17:34.849Z,22.08
2022-11-23T01:17:44.845Z,22.07
2022-11-23T01:17:54.847Z,22.08
2022-11-23T01:18:04.857Z,22.09
2022-11-23T01:18:14.848Z,22.10
2022-11-23T01:18:24.851Z,22.11
2022-11-23T01:18:34.850Z,22.11
2022-11-23T01:18:44.851Z,22.11
2022-11-23T01:18:54.852Z,22.12
2022-11-23T01:19:04.857Z,22.11
2022-11-23T01:19:14.859Z,22.12
2022-11-23T01:19:24.853Z,22.11
2022-11-23T01:19:34.856Z,22.11
2022-11-23T01:19:44.858Z,22.11
2022-11-23T01:19:54.854Z,22.11
2022-11-23T01:20:04.890Z,22.12
2022-11-23T01:20:14.857Z,22.12
2022-11-23T01:20:24.858Z,22.10
2022-11-23T01:20:34.869Z,22.10
2022-11-23T01:20:44.859Z,22.12
2022-11-23T01:20:54.859Z,22.11
2022-11-23T01:21:04.860Z,22.10
2022-11-23T01:21:14.859Z,22.11
2022-11-23T01:21:24.863Z,22.09
2022-11-23T01:21:34.871Z,22.08
2022-11-23T01:21:44.863Z,22.10
2022-11-23T01:21:54.864Z,22.10
2022-11-23T01:22:04.865Z,22.10
2022-11-23T01:22:14.867Z,22.11
2022-11-23T01:22:24.868Z,22.11
2022-11-23T01:22:34.866Z,22.09
2022-11-23T01:22:44.869Z,22.11
2022-11-23T01:22:54.873Z,22.08
2022-11-23T01:23:04.872Z,22.10
2022-11-23T01:23:14.872Z,22.09
2022-11-23T01:23:24.872Z,22.07
2022-11-23T01:23:34.871Z,22.07
2022-11-23T01:23:44.873Z,22.07
2022-11-23T01:23:54.876Z,22.07
2022-11-23T01:24:04.876Z,22.07
2022-11-23T01:24:14.880Z,22.08
2022-11-23T01:24:24.879Z,22.08
2022-11-23T01:24:34.880Z,22.08
2022-11-23T01:24:44.862Z,22.08
2022-11-23T01:24:54.881Z,22.07
2022-11-23T01:25:04.882Z,22.08
2022-11-23T01:25:14.880Z,22.08
2022-11-23T01:25:24.886Z,22.07
2022-11-23T01:25:34.881Z,22.07
2022-11-23T01:25:44.882Z,22.07
2022-11-23T01:25:57.193Z,22.06
2022-11-23T01:26:04.883Z,22.04
2022-11-23T01:26:14.887Z,22.04
2022-11-23T01:26:24.889Z,22.04
2022-11-23T01:26:34.886Z,22.03
2022-11-23T01:26:44.887Z,22.03
2022-11-23T01:26:54.889Z,22.02
2022-11-23T01:27:04.889Z,22.05
2022-11-23T01:27:14.890Z,22.02
2022-11-23T01:27:24.891Z,22.03
2022-11-23T01:27:34.891Z,22.02
2022-11-23T01:27:44.893Z,22.04
2022-11-23T01:27:54.893Z,22.04
2022-11-23T01:28:04.894Z,22.06
2022-11-23T01:28:14.896Z,22.04
2022-11-23T01:28:24.900Z,22.05
2022-11-23T01:28:34.898Z,22.05
2022-11-23T01:28:44.899Z,22.05
2022-11-23T01:28:54.902Z,22.06
2022-11-23T01:29:04.903Z,22.07
2022-11-23T01:29:14.904Z,22.06
2022-11-23T01:29:24.901Z,22.07
2022-11-23T01:29:35.124Z,22.07
2022-11-23T01:29:44.905Z,22.07
2022-11-23T01:29:54.911Z,22.07
2022-11-23T01:30:04.907Z,22.09
2022-11-23T01:30:14.903Z,22.07
2022-11-23T01:30:24.908Z,22.07
2022-11-23T01:30:34.910Z,22.09
2022-11-23T01:30:44.908Z,22.11
2022-11-23T01:30:54.910Z,22.10
2022-11-23T01:31:04.911Z,22.09
2022-11-23T01:31:14.910Z,22.09
2022-11-23T01:31:24.914Z,22.09
2022-11-23T01:31:34.912Z,22.10
2022-11-23T01:31:47.022Z,22.10
2022-11-23T01:31:54.916Z,22.07
2022-11-23T01:32:04.915Z,22.07
2022-11-23T01:32:14.918Z,22.08
2022-11-23T01:32:24.916Z,22.08
2022-11-23T01:32:34.919Z,22.06
2022-11-23T01:32:44.921Z,22.08
2022-11-23T01:32:54.921Z,22.08
2022-11-23T01:33:04.919Z,22.01
2022-11-23T01:33:14.921Z,22.08
2022-11-23T01:33:24.922Z,22.06
2022-11-23T01:33:34.923Z,22.07
2022-11-23T01:33:44.924Z,22.08
2022-11-23T01:33:54.925Z,22.07
2022-11-23T01:34:04.928Z,22.08
2022-11-23T01:34:14.929Z,22.09
2022-11-23T01:34:24.925Z,22.08
2022-11-23T01:34:34.930Z,22.10
2022-11-23T01:34:44.928Z,22.09
2022-11-23T01:34:54.930Z,22.10
2022-11-23T01:35:04.930Z,22.10
2022-11-23T01:35:14.931Z,22.09
2022-11-23T01:35:24.930Z,22.10
2022-11-23T01:35:34.933Z,22.12
2022-11-23T01:35:44.932Z,22.11
2022-11-23T01:35:54.936Z,22.10
2022-11-23T01:36:04.937Z,22.11
2022-11-23T01:36:14.936Z,22.09
2022-11-23T01:36:25.478Z,22.11
2022-11-23T01:36:34.943Z,22.09
2022-11-23T01:36:44.944Z,22.10
2022-11-23T01:36:54.940Z,22.10
2022-11-23T01:37:04.940Z,22.09
2022-11-23T01:37:14.941Z,22.10
2022-11-23T01:37:24.943Z,22.09
2022-11-23T01:37:34.944Z,22.10
2022-11-23T01:37:44.942Z,22.10
2022-11-23T01:37:54.944Z,22.11
2022-11-23T01:38:04.945Z,22.11
2022-11-23T01:38:18.240Z,22.09
2022-11-23T01:38:24.945Z,22.09
2022-11-23T01:38:34.947Z,22.09
2022-11-23T01:38:44.950Z,22.09
2022-11-23T01:38:54.950Z,22.09
2022-11-23T01:39:04.950Z,22.09
2022-11-23T01:39:14.952Z,22.10
2022-11-23T01:39:24.952Z,22.10
2022-11-23T01:39:34.950Z,22.10
2022-11-23T01:39:44.952Z,22.10
2022-11-23T01:39:54.955Z,22.10
2022-11-23T01:40:04.960Z,22.09
2022-11-23T01:40:14.958Z,22.11
2022-11-23T01:40:24.956Z,22.12
2022-11-23T01:40:34.958Z,22.12
2022-11-23T01:40:44.965Z,22.13
2022-11-23T01:40:54.961Z,22.11
2022-11-23T01:41:04.962Z,22.13
2022-11-23T01:41:14.961Z,22.12
2022-11-23T01:41:24.961Z,22.12
2022-11-23T01:41:34.964Z,22.11
2022-11-23T01:41:44.974Z,22.12
2022-11-23T01:41:54.963Z,22.12
2022-11-23T01:42:04.983Z,22.12
2022-11-23T01:42:17.904Z,22.11
2022-11-23T01:42:24.968Z,22.10
2022-11-23T01:42:34.967Z,22.10
2022-11-23T01:42:44.967Z,22.10
2022-11-23T01:42:54.974Z,22.09
2022-11-23T01:43:04.972Z,22.10
2022-11-23T01:43:14.953Z,22.09
2022-11-23T01:43:24.972Z,22.10
2022-11-23T01:43:34.969Z,22.10
2022-11-23T01:43:44.970Z,22.10
2022-11-23T01:43:54.973Z,22.12
2022-11-23T01:44:04.973Z,22.10
2022-11-23T01:44:14.976Z,22.12
2022-11-23T01:44:24.976Z,22.10
2022-11-23T01:44:34.977Z,22.11
2022-11-23T01:44:44.976Z,22.10
2022-11-23T01:44:54.977Z,22.11
2022-11-23T01:45:04.979Z,22.09
2022-11-23T01:45:14.981Z,22.11
2022-11-23T01:45:24.982Z,22.12
2022-11-23T01:45:34.980Z,22.12
2022-11-23T01:45:44.982Z,22.05
2022-11-23T01:45:54.983Z,22.10
2022-11-23T01:46:04.983Z,22.10
2022-11-23T01:46:14.984Z,22.11
2022-11-23T01:46:24.984Z,22.10
2022-11-23T01:46:34.987Z,22.11
2022-11-23T01:46:44.985Z,22.10
2022-11-23T01:46:54.985Z,22.10
2022-11-23T01:47:04.971Z,22.10
2022-11-23T01:47:14.990Z,22.09
2022-11-23T01:47:24.992Z,22.09
2022-11-23T01:47:34.990Z,22.09
2022-11-23T01:47:44.999Z,22.08
2022-11-23T01:47:54.993Z,22.08
2022-11-23T01:48:04.995Z,22.07
2022-11-23T01:48:14.996Z,22.07
2022-11-23T01:48:24.996Z,22.07
2022-11-23T01:48:34.997Z,22.08
2022-11-23T01:48:45.003Z,22.09
2022-11-23T01:48:55.001Z,22.08
2022-11-23T01:49:04.998Z,22.08
2022-11-23T01:49:14.998Z,22.08
2022-11-23T01:49:25.002Z,22.07
2022-11-23T01:49:35.156Z,22.09
2022-11-23T01:49:44.996Z,22.10
2022-11-23T01:49:55.037Z,22.10
2022-11-23T01:50:05.005Z,22.09
2022-11-23T01:50:15.009Z,22.08
2022-11-23T01:50:25.008Z,22.10
2022-11-23T01:50:35.007Z,22.10
2022-11-23T01:50:45.007Z,22.10
2022-11-23T01:50:55.017Z,22.10
2022-11-23T01:51:05.012Z,22.12
2022-11-23T01:51:15.012Z,22.10
2022-11-23T01:51:25.017Z,22.11
2022-11-23T01:51:35.017Z,22.11
2022-11-23T01:51:45.016Z,22.10
2022-11-23T01:51:55.024Z,22.11
2022-11-23T01:52:05.019Z,22.10
2022-11-23T01:52:15.004Z,22.10
2022-11-23T01:52:25.021Z,22.10
2022-11-23T01:52:35.030Z,22.09
2022-11-23T01:52:45.022Z,22.09
2022-11-23T01:52:55.022Z,22.09
2022-11-23T01:53:05.024Z,22.08
2022-11-23T01:53:15.030Z,22.09
2022-11-23T01:53:25.026Z,22.09
2022-11-23T01:53:35.026Z,22.10
2022-11-23T01:53:45.027Z,22.08
2022-11-23T01:53:55.039Z,22.09
2022-11-23T01:54:05.026Z,22.09
2022-11-23T01:54:15.033Z,22.11
2022-11-23T01:54:25.029Z,22.10
2022-11-23T01:54:35.057Z,22.11
2022-11-23T01:54:45.032Z,22.12
2022-11-23T01:54:55.032Z,22.12
2022-11-23T01:55:08.427Z,22.12
2022-11-23T01:55:15.049Z,22.11
2022-11-23T01:55:25.037Z,22.10
2022-11-23T01:55:35.037Z,22.13
2022-11-23T01:55:45.038Z,22.11
2022-11-23T01:55:55.037Z,22.12
2022-11-23T01:56:05.036Z,22.14
2022-11-23T01:56:15.037Z,22.14
2022-11-23T01:56:25.038Z,22.14
2022-11-23T01:56:35.044Z,22.14
2022-11-23T01:56:45.049Z,22.14
2022-11-23T01:56:55.042Z,22.15
2022-11-23T01:57:05.044Z,22.14
2022-11-23T01:57:15.046Z,22.14
2022-11-23T01:57:25.043Z,22.12
2022-11-23T01:57:35.043Z,22.12
2022-11-23T01:57:45.045Z,22.11
2022-11-23T01:57:55.047Z,22.12
2022-11-23T01:58:05.050Z,22.12
2022-11-23T01:58:15.045Z,22.10
2022-11-23T01:58:25.051Z,22.11
2022-11-23T01:58:35.051Z,22.10
2022-11-23T01:58:45.049Z,22.11
2022-11-23T01:58:55.049Z,22.11
2022-11-23T01:59:05.051Z,22.11
2022-11-23T01:59:15.060Z,22.04
2022-11-23T01:59:25.055Z,22.11
2022-11-23T01:59:35.052Z,22.10
2022-11-23T01:59:45.053Z,22.10
2022-11-23T01:59:55.056Z,22.10
2022-11-23T02:00:05.059Z,22.09
2022-11-23T02:00:15.059Z,22.09
2022-11-23T02:00:25.064Z,22.08
2022-11-23T02:00:35.058Z,22.09
2022-11-23T02:00:45.098Z,22.09
2022-11-23T02:00:55.130Z,22.10
2022-11-23T02:01:05.080Z,22.07
2022-11-23T02:01:15.103Z,22.08
2022-11-23T02:01:25.094Z,22.07
2022-11-23T02:01:35.090Z,22.07
2022-11-23T02:01:45.067Z,22.07
2022-11-23T02:01:55.063Z,22.08
2022-11-23T02:02:05.074Z,22.08
2022-11-23T02:02:15.064Z,22.08
2022-11-23T02:02:25.071Z,22.08
2022-11-23T02:02:35.099Z,22.09
2022-11-23T02:02:45.067Z,22.08
2022-11-23T02:02:55.066Z,22.09
2022-11-23T02:03:05.072Z,22.08
2022-11-23T02:03:15.069Z,22.09
2022-11-23T02:03:25.070Z,22.08
2022-11-23T02:03:35.073Z,22.08
2022-11-23T02:03:45.072Z,22.08
2022-11-23T02:03:55.073Z,22.08
2022-11-23T02:04:05.076Z,22.07
2022-11-23T02:04:15.077Z,22.06
2022-11-23T02:04:25.076Z,22.06
2022-11-23T02:04:35.080Z,22.06
2022-11-23T02:04:45.079Z,22.07
2022-11-23T02:04:55.081Z,22.07
2022-11-23T02:05:05.081Z,22.08
2022-11-23T02:05:15.080Z,22.08
2022-11-23T02:05:25.081Z,22.07
2022-11-23T02:05:35.082Z,22.07
2022-11-23T02:05:45.085Z,22.07
2022-11-23T02:05:55.083Z,22.07
2022-11-23T02:06:05.083Z,22.06
2022-11-23T02:06:15.085Z,22.06
2022-11-23T02:06:25.086Z,22.07
2022-11-23T02:06:35.088Z,22.05
2022-11-23T02:06:45.089Z,22.04
2022-11-23T02:06:55.088Z,22.05
2022-11-23T02:07:05.154Z,22.06
2022-11-23T02:07:15.166Z,22.07
2022-11-23T02:07:25.162Z,22.06
2022-11-23T02:07:35.133Z,22.07
2022-11-23T02:07:45.140Z,22.06
2022-11-23T02:07:55.092Z,22.06
2022-11-23T02:08:05.092Z,22.07
2022-11-23T02:08:15.095Z,22.08
2022-11-23T02:08:25.094Z,22.07
2022-11-23T02:08:35.094Z,22.07
2022-11-23T02:08:45.093Z,22.06